Landels-Hill Big Creek Reserve Entrance, California Weather observations

Data are for 10 minute period ending at time listed.
 Day   Time   Solar   Ave.   Ave.  Ave.  Vector  Max.   Baro.   Total    
  of    of     Rad.   Air    Rel.  Wind   Wind   Wind  Press.  Precip.   
Year   Day            Temp.  Hum.  Speed  Dir.   Gust                    
2015   (PST)  Kw/m2    F      %     mph   deg.    mph    mb.     in.     
-------------------------------------------------------------------------
 241   10:10   0.72   73.9    57    2.2   188     4.1   1012.5    0.00 
 241   10:20   0.74   74.2    57    2.2   196     5.4   1012.6    0.00 
 241   10:30   0.76   73.0    61    2.6   197     5.3   1012.6    0.00 
 241   10:40   0.77   72.0    65    2.3   184     5.2   1012.6    0.00 
 241   10:50   0.79   72.1    67    2.0   204     5.7   1012.5    0.00 
 241   11:00   0.79   72.5    69    4.1    47    15.1   1012.5    0.00 
 241   11:10   0.82   73.7    69    5.3    76    16.3   1012.5    0.00 
 241   11:20   0.82   73.9    69    6.7   143    14.5   1012.4    0.00 
 241   11:30   0.82   73.7    68    4.9   174    12.3   1012.3    0.00 
 241   11:40   0.79   73.5    68    4.5   151    12.6   1012.4    0.00 
 241   11:50   0.85   72.9    71    5.4   139    11.1   1012.5    0.00 
 241   12:00   0.87   71.4    73    6.0   144    11.5   1012.6    0.00 
 241   12:10   0.86   70.9    74    5.1   153    11.3   1012.5    0.00 
 241   12:20   0.86   72.4    71    5.9   146    14.8   1012.4    0.00 
 241   12:30   0.86   73.4    70    5.7   160    13.4   1012.4    0.00 
 241   12:40   0.86   73.5    68    5.4   174    11.2   1012.3    0.00 
 241   12:50   0.86   73.7    69    4.8   167    11.0   1012.2    0.00 
 241   13:00   0.81   74.5    68    6.5   160    19.0   1012.3    0.00 
 241   13:10   0.83   74.2    69    6.9   165    15.3   1012.3    0.00 
 241   13:20   0.84   73.7    70    7.6   152    18.0   1012.3    0.00 
 241   13:30   0.83   74.5    68    7.5   170    14.5   1012.1    0.00 
 241   13:40   0.81   74.4    69    7.8   172    18.0   1012.1    0.00 
 241   13:50   0.80   73.7    70    6.9   178    12.8   1012.2    0.00 
 241   14:00   0.79   73.3    72    7.0   149    15.4   1012.1    0.00 
 241   14:10   0.77   73.9    72    7.4   168    16.3   1012.2    0.00 
 241   14:20   0.75   73.4    74    8.8   168    18.3   1012.1    0.00 
 241   14:30   0.73   73.2    74    8.3   172    17.0   1012.0    0.00 
 241   14:40   0.71   73.1    74    7.4   165    14.6   1011.9    0.00 
 241   14:50   0.69   72.4    76    8.4   163    17.6   1012.0    0.00 
 241   15:00   0.65   71.7    77    7.6   147    15.4   1011.9    0.00 
 241   15:10   0.64   71.6    78    7.1   161    17.3   1011.8    0.00 
 241   15:20   0.62   72.1    76    6.1   121    15.3   1011.8    0.00 
 241   15:30   0.59   71.8    77    5.1   137    12.6   1011.8    0.00 
 241   15:40   0.56   72.1    76    4.4    64    11.3   1011.9    0.00 
 241   15:50   0.52   71.9    76    6.0    78    15.1   1011.9    0.00 
 241   16:00   0.38   70.7    78    5.3    60    12.3   1011.9    0.00 
 241   16:10   0.46   71.0    78    4.0    10    10.7   1011.8    0.00 
 241   16:20   0.39   71.1    77    4.3   168     9.8   1011.7    0.00 
 241   16:30   0.32   70.7    77    3.2   176     7.7   1011.7    0.00 
 241   16:40   0.38   71.4    75    2.4   191     5.3   1011.6    0.00 
 241   16:50   0.30   72.2    73    2.5   196     5.9   1011.6    0.00 
 241   17:00   0.32   71.2    74    3.6   180     7.5   1011.4    0.00 
 241   17:10   0.29   70.1    76    3.8   186     7.6   1011.4    0.00 
 241   17:20   0.20   70.0    75    3.2   193     7.4   1011.4    0.00 
 241   17:30   0.05   68.9    77    2.1   180     7.2   1011.3    0.00 
 241   17:40   0.05   68.7    78    1.1   186     3.1   1011.1    0.00 
 241   17:50   0.04   68.6    78    0.9   222     4.0   1010.8    0.00 
 241   18:00   0.04   67.5    79    1.5   191     4.5   1010.6    0.00 
 241   18:10   0.03   67.2    80    1.6   186     4.4   1010.5    0.00 
 241   18:20   0.03   67.0    80    1.1   227     4.1   1010.4    0.00 
 241   18:30   0.01   66.7    80    0.9   234     3.1   1010.3    0.00 
 241   18:40   0.01   66.4    81    0.1   222     0.7   1010.1    0.00 
 241   18:50   0.01   66.1    81    0.6   228     2.5   1010.1    0.00 
 241   19:00   0.00   65.5    82    0.6   236     3.4   1010.1    0.00 
 241   19:10   0.00   65.2    82    0.8    16     3.4   1010.1    0.00 
 241   19:20   0.00   65.0    83    1.3    80     4.2   1010.1    0.00 
 241   19:30   0.00   65.0    83    0.3   176     1.7   1010.2    0.00 
 241   19:40   0.00   64.7    83    0.7   206     2.7   1010.3    0.00 
 241   19:50   0.00   64.3    84    0.0   334     0.4   1010.4    0.00 
 241   20:00   0.00   63.7    84    0.1   178     1.1   1010.6    0.00 
 241   20:10   0.00   63.7    85    0.6   358     2.4   1010.6    0.00 
 241   20:20   0.00   63.8    84    0.1   350     1.2   1010.5    0.00 
 241   20:30   0.00   63.1    84    0.2   315     0.9   1010.4    0.00 
 241   20:40   0.00   62.6    85    0.6    39     2.8   1010.5    0.00 
 241   20:50   0.00   62.5    86    1.8    58     4.9   1010.4    0.00 
 241   21:00   0.00   62.9    86    0.6     4     1.9   1010.4    0.00 
 241   21:10   0.00   62.7    86    0.5   170     2.6   1010.5    0.00 
 241   21:20   0.00   61.9    85    0.2    96     1.5   1010.5    0.00 
 241   21:30   0.00   61.5    84    0.0     0     0.0   1010.5    0.00 
 241   21:40   0.00   61.2    85    0.9    56     3.3   1010.4    0.00 
 241   21:50   0.00   61.4    85    2.5    23     5.5   1010.4    0.00 
 241   22:00   0.00   61.7    85    0.9    44     2.9   1010.5    0.00 
 241   22:10   0.00   61.5    85    0.4    15     2.0   1010.5    0.00 
 241   22:20   0.00   61.1    85    0.5   351     1.9   1010.5    0.00 
 241   22:30   0.00   60.4    86    1.9   354     3.9   1010.4    0.00 
 241   22:40   0.00   60.2    86    2.1    17     4.4   1010.4    0.00 
 241   22:50   0.00   60.6    85    2.2    15     5.3   1010.4    0.00 
 241   23:00   0.00   60.5    86    2.3    22     5.6   1010.4    0.00 
 241   23:10   0.00   60.5    86    1.4    67     4.0   1010.5    0.00 
 241   23:20   0.00   60.4    86    1.3    54     3.8   1010.5    0.00 
 241   23:30   0.00   60.4    86    1.7    51     4.7   1010.5    0.00 
 241   23:40   0.00   60.3    86    2.0    52     4.2   1010.6    0.00 
 241   23:50   0.00   60.3    85    0.7    22     3.1   1010.7    0.00 
 242    0:00   0.00   59.8    85    1.5    46     4.0   1010.6    0.00 
 242    0:10   0.00   59.4    86    1.9    49     4.7   1010.6    0.00 
 242    0:20   0.00   59.4    85    1.5    42     3.1   1010.7    0.00 
 242    0:30   0.00   59.4    84    1.4    10     2.9   1010.8    0.00 
 242    0:40   0.00   58.9    85    2.4    24     4.4   1010.7    0.00 
 242    0:50   0.00   58.4    86    1.8    17     3.8   1010.8    0.00 
 242    1:00   0.00   58.1    86    1.5    40     3.6   1010.9    0.00 
 242    1:10   0.00   58.0    86    2.5    37     6.4   1010.7    0.00 
 242    1:20   0.00   58.2    85    2.8    42     5.0   1010.6    0.00 
 242    1:30   0.00   58.8    82    2.2    36     7.5   1010.7    0.00 
 242    1:40   0.00   58.7    82    2.0    34     4.7   1010.8    0.00 
 242    1:50   0.00   58.5    81    2.0    43     3.8   1010.8    0.00 
 242    2:00   0.00   58.6    81    2.0    42     4.5   1010.8    0.00 
 242    2:10   0.00   58.7    80    0.8    23     3.3   1010.9    0.00 
 242    2:20   0.00   57.6    82    1.9    32     3.9   1010.9    0.00 
 242    2:30   0.00   57.3    83    1.7    38     4.7   1010.8    0.00 
 242    2:40   0.00   57.5    82    2.9    16     7.5   1010.7    0.00 
 242    2:50   0.00   57.8    80    1.9    24     5.2   1010.7    0.00 
 242    3:00   0.00   57.8    79    1.5    32     5.4   1010.8    0.00 
 242    3:10   0.00   57.8    78    2.1     0     3.7   1010.9    0.00 
 242    3:20   0.00   57.0    81    1.4    34     3.9   1010.8    0.00 
 242    3:30   0.00   56.9    81    1.9    39     4.6   1010.7    0.00 
 242    3:40   0.00   56.9    80    1.8    30     4.8   1010.8    0.00 
 242    3:50   0.00   56.6    81    1.9    23     3.9   1011.0    0.00 
 242    4:00   0.00   56.1    82    2.4    26     5.0   1011.0    0.00 
 242    4:10   0.00   56.1    82    2.6    35     5.3   1011.0    0.00 
 242    4:20   0.00   56.7    80    2.5    43     5.4   1010.9    0.00 
 242    4:30   0.00   56.9    79    2.6    45     5.8   1010.9    0.00 
 242    4:40   0.00   57.2    78    2.1    48     5.2   1010.9    0.00 
 242    4:50   0.00   57.3    77    1.9    40     4.2   1010.9    0.00 
 242    5:00   0.00   56.6    79    1.4     4     3.2   1011.1    0.00 
 242    5:10   0.00   56.1    81    1.5    46     3.5   1011.2    0.00 
 242    5:20   0.00   56.1    81    2.1    39     3.9   1011.3    0.00 
 242    5:30   0.00   56.2    80    2.1    43     4.9   1011.4    0.00 
 242    5:40   0.00   56.0    80    2.2    19     3.6   1011.6    0.00 
 242    5:50   0.01   55.5    82    2.5     6     5.0   1011.8    0.00 
 242    6:00   0.01   55.3    83    2.3    33     5.3   1011.9    0.00 
 242    6:10   0.01   55.9    81    2.4    49     5.1   1012.0    0.00 
 242    6:20   0.01   56.5    78    1.7    20     4.0   1012.1    0.00 
 242    6:30   0.01   56.2    79    1.4    35     5.2   1012.3    0.00 
 242    6:40   0.01   56.3    78    1.6    43     4.3   1012.4    0.00 
 242    6:50   0.01   56.2    78    2.0    55     4.5   1012.5    0.00 
 242    7:00   0.01   56.2    78    1.6    36     3.2   1012.5    0.00 
 242    7:10   0.01   56.2    79    2.3    35     4.7   1012.4    0.00 
 242    7:20   0.03   57.1    77    0.9    58     4.2   1012.5    0.00 
 242    7:30   0.03   57.3    76    0.8   352     2.0   1012.5    0.00 
 242    7:40   0.03   56.8    79    0.6   350     1.6   1012.6    0.00 
 242    7:50   0.03   56.5    82    0.2    22     1.0   1012.6    0.00 
 242    8:00   0.03   56.3    83    0.0    10     0.3   1012.6    0.00 
 242    8:10   0.03   56.3    84    0.0     0     0.0   1012.5    0.00 
 242    8:20   0.03   57.2    86    0.3   155     1.8   1012.6    0.00 
 242    8:30   0.03   59.3    83    1.0   173     2.5   1012.6    0.00 
 242    8:40   0.03   61.0    78    1.5   139     3.1   1012.6    0.00 
 242    8:50   0.04   62.3    75    2.0   137     3.8   1012.7    0.00 
 242    9:00   0.04   62.1    77    2.1   154     4.5   1012.7    0.00 
 242    9:10   0.04   61.7    78    0.6   199     2.4   1012.7    0.00 
 242    9:20   0.44   62.3    78    1.7   199     3.9   1012.7    0.00 
 242    9:30   0.63   64.7    73    1.4   224     4.3   1012.6    0.00 
 242    9:40   0.66   66.6    69    2.0   212     4.1   1012.7    0.00 
 242    9:50   0.69   65.6    72    2.4   236     5.6   1012.9    0.00 
 242   10:00   0.71   64.7    74    3.5   249     6.2   1013.0    0.00 

Return to Big Creek Reserve Entrance graphs page.


Western Regional Climate Center,wrcc@dri.edu